createdAt,value
2023-10-09T00:02:52.000Z,3
2023-10-09T00:07:53.000Z,3
2023-10-09T00:12:53.000Z,3.01
2023-10-09T00:17:52.000Z,3.01
2023-10-09T00:22:52.000Z,2.98
2023-10-09T00:27:53.000Z,2.98
2023-10-09T00:32:53.000Z,2.99
2023-10-09T00:37:52.000Z,2.99
2023-10-09T00:42:53.000Z,3.02
2023-10-09T00:47:53.000Z,2.93
2023-10-09T00:52:53.000Z,2.93
2023-10-09T00:57:53.000Z,2.91
2023-10-09T01:02:53.000Z,2.91
2023-10-09T01:07:52.000Z,2.99
2023-10-09T01:12:53.000Z,2.99
2023-10-09T01:17:53.000Z,3.02
2023-10-09T01:22:53.000Z,3.02
2023-10-09T01:27:53.000Z,3.02
2023-10-09T01:32:53.000Z,3.02
2023-10-09T01:37:53.000Z,3.13
2023-10-09T01:42:53.000Z,3.13
2023-10-09T01:47:53.000Z,3.15
2023-10-09T01:52:52.000Z,3.18
2023-10-09T01:57:53.000Z,3.18
2023-10-09T02:02:53.000Z,3.23
2023-10-09T02:07:52.000Z,3.23
2023-10-09T02:12:53.000Z,3.22
2023-10-09T02:17:53.000Z,3.22
2023-10-09T02:22:53.000Z,3.29
2023-10-09T02:27:52.000Z,3.29
2023-10-09T02:32:53.000Z,3.3
2023-10-09T02:37:54.000Z,3.3
2023-10-09T02:42:53.000Z,3.3
2023-10-09T02:47:53.000Z,3.37
2023-10-09T02:52:53.000Z,3.37
2023-10-09T02:57:53.000Z,3.34
2023-10-09T03:02:53.000Z,3.34
2023-10-09T03:12:53.000Z,3.39
2023-10-09T03:17:54.000Z,3.37
2023-10-09T03:22:53.000Z,3.37
2023-10-09T03:27:53.000Z,3.27
2023-10-09T03:32:53.000Z,3.27
2023-10-09T03:37:53.000Z,3.35
2023-10-09T03:42:53.000Z,3.35
2023-10-09T03:47:53.000Z,3.38
2023-10-09T03:52:53.000Z,3.38
2023-10-09T03:57:53.000Z,3.34
2023-10-09T04:02:53.000Z,3.34
2023-10-09T04:07:54.000Z,3.38
2023-10-09T04:12:53.000Z,3.38
2023-10-09T04:17:53.000Z,3.46
2023-10-09T04:22:53.000Z,3.46
2023-10-09T04:27:53.000Z,3.48
2023-10-09T04:32:53.000Z,3.55
2023-10-09T04:37:53.000Z,3.55
2023-10-09T04:42:53.000Z,3.59
2023-10-09T04:47:53.000Z,3.59
2023-10-09T04:52:53.000Z,3.7
2023-10-09T04:57:53.000Z,3.8
2023-10-09T05:02:53.000Z,3.8
2023-10-09T05:07:53.000Z,3.72
2023-10-09T05:12:53.000Z,3.72
2023-10-09T05:17:53.000Z,3.94
2023-10-09T05:22:53.000Z,3.94
2023-10-09T05:27:53.000Z,3.99
2023-10-09T05:32:53.000Z,3.99
2023-10-09T05:37:53.000Z,4.09
2023-10-09T05:42:54.000Z,3.89
2023-10-09T05:47:53.000Z,3.89
2023-10-09T05:52:53.000Z,3.99
2023-10-09T05:57:53.000Z,3.99
2023-10-09T06:03:09.000Z,4.2
2023-10-09T06:07:53.000Z,4.2
2023-10-09T06:12:53.000Z,4.25
2023-10-09T06:17:53.000Z,4.25
2023-10-09T06:22:53.000Z,4.35
2023-10-09T06:27:53.000Z,4.35
2023-10-09T06:32:53.000Z,4.43
2023-10-09T06:47:53.000Z,4.69
2023-10-09T06:52:52.000Z,4.69
2023-10-09T06:57:53.000Z,4.82
2023-10-09T07:02:53.000Z,4.87
2023-10-09T07:07:53.000Z,4.87
2023-10-09T07:12:52.000Z,5.11
2023-10-09T07:17:53.000Z,5.11
2023-10-09T07:22:53.000Z,5.44
2023-10-09T07:27:53.000Z,5.44
2023-10-09T07:32:53.000Z,5.69
2023-10-09T07:37:53.000Z,5.69
2023-10-09T07:42:53.000Z,5.5
2023-10-09T07:47:52.000Z,5.71
2023-10-09T07:52:52.000Z,5.71
2023-10-09T07:57:52.000Z,6.16
2023-10-09T08:02:53.000Z,6.16
2023-10-09T08:08:18.000Z,6.61
2023-10-09T08:17:53.000Z,6.34
2023-10-09T08:22:53.000Z,5.97
2023-10-09T08:27:52.000Z,5.97
2023-10-09T08:37:52.000Z,6.26
2023-10-09T08:42:52.000Z,6.25
2023-10-09T08:47:53.000Z,6.25
2023-10-09T08:52:53.000Z,6.57
2023-10-09T08:57:53.000Z,6.57
2023-10-09T09:02:53.000Z,6.7
2023-10-09T09:07:53.000Z,6.7
2023-10-09T09:12:53.000Z,6.31
2023-10-09T09:17:53.000Z,6.31
2023-10-09T09:22:53.000Z,6.34
2023-10-09T09:27:52.000Z,6.34
2023-10-09T09:32:53.000Z,6.6
2023-10-09T09:37:52.000Z,6.6
2023-10-09T09:42:53.000Z,6.62
2023-10-09T09:47:53.000Z,6.62
2023-10-09T09:52:53.000Z,6.55
2023-10-09T09:57:57.000Z,6.35
2023-10-09T10:02:52.000Z,6.35
2023-10-09T10:12:53.000Z,6.22
2023-10-09T10:17:53.000Z,6.37
2023-10-09T10:22:52.000Z,6.37
2023-10-09T10:27:53.000Z,6.45
2023-10-09T10:32:53.000Z,6.45
2023-10-09T10:37:52.000Z,6.51
2023-10-09T10:42:53.000Z,6.51
2023-10-09T10:47:52.000Z,6.41
2023-10-09T10:52:54.000Z,6.41
2023-10-09T10:57:53.000Z,6.26
2023-10-09T11:02:53.000Z,6.1
2023-10-09T11:07:53.000Z,6.1
2023-10-09T11:12:52.000Z,6.17
2023-10-09T11:17:53.000Z,6.17
2023-10-09T11:22:53.000Z,6.19
2023-10-09T11:27:52.000Z,6.19
2023-10-09T11:32:53.000Z,6.16
2023-10-09T11:37:52.000Z,6.16
2023-10-09T11:42:53.000Z,6.12
2023-10-09T11:47:53.000Z,6.12
2023-10-09T11:52:54.000Z,5.99
2023-10-09T11:57:53.000Z,5.99
2023-10-09T12:02:54.000Z,5.81
2023-10-09T12:07:52.000Z,5.86
2023-10-09T12:12:53.000Z,5.86
2023-10-09T12:17:53.000Z,5.83
2023-10-09T12:22:53.000Z,5.83
2023-10-09T12:27:53.000Z,5.71
2023-10-09T12:32:53.000Z,5.71
2023-10-09T12:37:53.000Z,5.49
2023-10-09T12:42:52.000Z,5.49
2023-10-09T12:47:54.000Z,5.27
2023-10-09T12:57:53.000Z,5.04
2023-10-09T13:02:52.000Z,5.04
2023-10-09T13:07:53.000Z,5.05
2023-10-09T13:12:53.000Z,5.1
2023-10-09T13:17:53.000Z,5.1
2023-10-09T13:23:03.000Z,5.17
2023-10-09T13:27:52.000Z,5.26
2023-10-09T13:32:54.000Z,5.26
2023-10-09T13:37:53.000Z,5.15
2023-10-09T13:42:53.000Z,5.15
2023-10-09T13:47:54.000Z,5.19
2023-10-09T13:52:53.000Z,5.19
2023-10-09T14:02:53.000Z,5.13
2023-10-09T14:07:52.000Z,5.13
2023-10-09T14:12:53.000Z,5.05
2023-10-09T14:17:53.000Z,5.05
2023-10-09T14:22:53.000Z,5.01
2023-10-09T14:27:53.000Z,5.01
2023-10-09T14:32:53.000Z,4.94
2023-10-09T14:37:53.000Z,4.94
2023-10-09T14:42:53.000Z,4.86
2023-10-09T14:47:52.000Z,4.87
2023-10-09T14:52:57.000Z,4.86
2023-10-09T14:57:53.000Z,4.86
2023-10-09T15:02:52.000Z,4.83
2023-10-09T15:07:57.000Z,4.83
2023-10-09T15:12:53.000Z,4.8
2023-10-09T15:17:53.000Z,4.76
2023-10-09T15:22:53.000Z,4.76
2023-10-09T15:27:53.000Z,4.77
2023-10-09T15:37:54.000Z,4.78
2023-10-09T15:42:52.000Z,4.78
2023-10-09T15:47:52.000Z,4.79
2023-10-09T15:52:53.000Z,4.79
2023-10-09T15:57:53.000Z,4.79
2023-10-09T16:02:53.000Z,4.78
2023-10-09T16:07:52.000Z,4.78
2023-10-09T16:12:53.000Z,4.7
2023-10-09T16:17:53.000Z,4.7
2023-10-09T16:22:53.000Z,4.63
2023-10-09T16:27:53.000Z,4.82
2023-10-09T16:32:54.000Z,4.82
2023-10-09T16:42:54.000Z,4.89
2023-10-09T16:47:53.000Z,4.71
2023-10-09T16:52:53.000Z,4.71
2023-10-09T16:57:53.000Z,4.58
2023-10-09T17:02:53.000Z,4.58
2023-10-09T17:12:53.000Z,4.54
2023-10-09T17:17:53.000Z,4.54
2023-10-09T17:22:53.000Z,4.45
2023-10-09T17:27:53.000Z,4.31
2023-10-09T17:32:52.000Z,4.31
2023-10-09T17:37:53.000Z,4.24
2023-10-09T17:42:54.000Z,4.24
2023-10-09T17:47:53.000Z,4.23
2023-10-09T17:52:52.000Z,4.23
2023-10-09T17:57:53.000Z,4.39
2023-10-09T18:02:54.000Z,4.39
2023-10-09T18:07:52.000Z,4.42
2023-10-09T18:12:53.000Z,4.42
2023-10-09T18:17:52.000Z,4.49
2023-10-09T18:22:53.000Z,4.49
2023-10-09T18:32:52.000Z,4.52
2023-10-09T18:37:52.000Z,4.42
2023-10-09T18:42:52.000Z,4.42
2023-10-09T18:47:52.000Z,4.23
2023-10-09T18:52:53.000Z,4.23
2023-10-09T18:57:53.000Z,4
2023-10-09T19:02:53.000Z,4
2023-10-09T19:07:53.000Z,3.99
2023-10-09T19:12:53.000Z,3.99
2023-10-09T19:17:53.000Z,3.77
2023-10-09T19:22:54.000Z,3.77
2023-10-09T19:27:53.000Z,3.86
2023-10-09T19:32:52.000Z,3.86
2023-10-09T19:37:53.000Z,3.83
2023-10-09T19:42:53.000Z,3.83
2023-10-09T19:47:53.000Z,3.86
2023-10-09T19:52:53.000Z,3.86
2023-10-09T19:57:52.000Z,3.83
2023-10-09T20:02:53.000Z,3.83
2023-10-09T20:07:55.000Z,3.83
2023-10-09T20:12:53.000Z,3.86
2023-10-09T20:17:53.000Z,3.98
2023-10-09T20:22:54.000Z,3.98
2023-10-09T20:27:53.000Z,4.08
2023-10-09T20:32:53.000Z,4.08
2023-10-09T20:37:53.000Z,4.21
2023-10-09T20:42:52.000Z,4.21
2023-10-09T20:47:54.000Z,4.29
2023-10-09T20:52:52.000Z,4.18
2023-10-09T20:57:53.000Z,4.18
2023-10-09T21:02:54.000Z,3.97
2023-10-09T21:07:53.000Z,3.97
2023-10-09T21:12:53.000Z,3.84
2023-10-09T21:17:52.000Z,3.84
2023-10-09T21:22:52.000Z,3.75
2023-10-09T21:27:53.000Z,3.75
2023-10-09T21:32:53.000Z,3.61
2023-10-09T21:37:52.000Z,3.5
2023-10-09T21:42:53.000Z,3.5
2023-10-09T21:47:52.000Z,3.37
2023-10-09T21:52:56.000Z,3.37
2023-10-09T21:57:52.000Z,3.46
2023-10-09T22:02:53.000Z,3.46
2023-10-09T22:07:53.000Z,3.63
2023-10-09T22:12:53.000Z,3.63
2023-10-09T22:17:52.000Z,3.65
2023-10-09T22:22:53.000Z,3.65
2023-10-09T22:27:53.000Z,3.71
2023-10-09T22:32:53.000Z,3.83
2023-10-09T22:37:53.000Z,3.83
2023-10-09T22:42:53.000Z,3.81
2023-10-09T22:47:53.000Z,3.81
2023-10-09T22:52:53.000Z,3.94
2023-10-09T22:57:52.000Z,3.94
2023-10-09T23:02:53.000Z,3.95
2023-10-09T23:07:53.000Z,3.95
2023-10-09T23:12:53.000Z,3.78
2023-10-09T23:17:53.000Z,3.78
2023-10-09T23:22:53.000Z,3.73
2023-10-09T23:27:53.000Z,3.73
2023-10-09T23:32:52.000Z,3.76
2023-10-09T23:37:53.000Z,3.76
2023-10-09T23:42:52.000Z,3.61
2023-10-09T23:47:53.000Z,3.53
2023-10-09T23:52:54.000Z,3.53
2023-10-09T23:57:53.000Z,3.58
